Roseville, Illinois
Current Conditions -  °F | °C
As of 5:35 AM on Wednesday 26 Nov 2014 (Local Time) from KMQB Reporting Station
Scattered Clouds Scattered Clouds  
Wind Chill: 19°   Ceiling: Unl
Heat Index: 26°   Visibility: 7mi
Dew Point: 25°   Wind: 7mph
Humidity: 96%   Direction: 120°ESE
Pressure: 30.08"   Gusts: NA
Location:  40.73°N, 90.66°W
Report Text: KMQB 261135Z AUTO 12006KT 7SM SCT110 M03/M04 A3008 RMK AO2 T10321038
Loading
Personal Weather Stations






























Interactive Weather Map New forecast layout! Learn more

10-Day Weather Forecast

Advertisements
Track Severe Weather on mobile